Otagawa — JD3046 — position and weather

sailwx.info

Track history (hours):
 
Tides and Currents Weather Stations Pressure Air Temp Water Temp Dewpoint Dewpoint Depression Visibility Wind Speed Wind Dir Waves Ship Positions

Otagawa

Last reported at 2016-Jul-25 19:18 UTC. Time now 2016-Jul-26 10:16 UTC.
Position N 35°01' E 139°29'.

Length 70 m; draft 3.7 m.

Type: Ship. MMSI: 431001328.

Date/timePositionNaut miles runAvg speedWind from/ knotsBaromVisibWave heightAir tempDewpointWater temp
2016-Jul-25 19:18N 35°01' E 139°29'1111.8
2016-Jul-25 18:21N 35°06' E 139°41'911.8
2016-Jul-25 17:33N 35°15' E 139°46'1110.5
2016-Jul-25 16:33N 35°24' E 139°41'1 1.3
2016-Jul-25 15:33N 35°23' E 139°40'0 0.3
2016-Jul-25 14:33N 35°23' E 139°40'0 0.2
2016-Jul-25 13:33N 35°23' E 139°40'0 0.0
2016-Jul-25 12:33N 35°23' E 139°40'0 0.0
2016-Jul-25 11:33N 35°23' E 139°40'0 0.0
2016-Jul-25 10:33N 35°23' E 139°40'0 0.0
2016-Jul-25 09:33N 35°23' E 139°40'0 0.0
2016-Jul-25 08:33N 35°23' E 139°40'0 0.4
2016-Jul-25 07:33N 35°23' E 139°41'3 2.8
2016-Jul-25 06:33N 35°26' E 139°41'0 0.0
2016-Jul-25 05:33N 35°26' E 139°41'6 6.4
2016-Jul-25 04:33N 35°20' E 139°43'10 9.5
2016-Jul-25 03:33N 35°11' E 139°46'1210.9
2016-Jul-25 02:27N 34°59' E 139°43'10 8.4
2016-Jul-25 01:17N 34°53' E 139°52'811.1
2016-Jul-25 00:33N 34°55' E 140°01'1211.6
2016-Jul-24 23:32N 35°02' E 140°13'1312.3
2016-Jul-24 22:30N 35°09' E 140°26'1111.9
2016-Jul-24 21:33N 35°19' E 140°34'1211.9
2016-Jul-24 20:33N 35°28' E 140°42'1612.4
2016-Jul-24 19:16N 35°41' E 140°54'70 1.8
2016-Jul-23 03:29N 35°02' E 139°43'1213.4
2016-Jul-23 02:33N 35°14' E 139°46'1211.8
2016-Jul-23 01:34N 35°25' E 139°44'1010.1
2016-Jul-23 00:34N 35°35' E 139°48'1 1.5
2016-Jul-22 23:34N 35°36' E 139°47'0 0.0
2016-Jul-22 22:34N 35°36' E 139°47'3 3.1
2016-Jul-22 21:33N 35°34' E 139°50'0 0.0
2016-Jul-22 20:33N 35°34' E 139°50'0 0.0
2016-Jul-22 19:15N 35°34' E 139°50'0 0.0
2016-Jul-22 18:33N 35°34' E 139°50'0 0.0
2016-Jul-22 17:33N 35°34' E 139°50'0 0.0
2016-Jul-22 16:09N 35°34' E 139°50'0 0.0
2016-Jul-22 15:21N 35°34' E 139°50'4 4.6
2016-Jul-22 14:33N 35°36' E 139°46'1 0.7
2016-Jul-22 13:33N 35°37' E 139°46'0 0.0
2016-Jul-22 12:33N 35°37' E 139°46'0 0.0
2016-Jul-22 11:33N 35°37' E 139°46'0 0.0
2016-Jul-22 10:33N 35°37' E 139°46'4 4.3
2016-Jul-22 09:33N 35°34' E 139°50'1 0.6
2016-Jul-22 08:31N 35°34' E 139°50'0 0.0
2016-Jul-22 07:31N 35°34' E 139°50'11 5.4
2016-Jul-22 05:33N 35°26' E 139°41'0 0.2
2016-Jul-22 04:33N 35°26' E 139°41'0 0.0
2016-Jul-22 03:33N 35°26' E 139°41'0 0.0
2016-Jul-22 02:33N 35°26' E 139°41'1 1.4
2016-Jul-22 01:33N 35°26' E 139°42'1010.2
2016-Jul-22 00:33N 35°16' E 139°46'10 9.6
2016-Jul-21 23:33N 35°06' E 139°46'1110.4
2016-Jul-21 22:27N 34°55' E 139°46'9 9.8
2016-Jul-21 21:33N 34°53' E 139°57'1110.9
2016-Jul-21 20:33N 34°59' E 140°08'1110.7
2016-Jul-21 19:33N 35°05' E 140°18'11 9.9
2016-Jul-21 18:29N 35°13' E 140°28'1010.2
2016-Jul-21 17:33N 35°20' E 140°35'1010.0
2016-Jul-21 16:33N 35°28' E 140°43'1010.0
2016-Jul-21 15:32N 35°36' E 140°50'22 0.5
2016-Jul-19 15:18N 35°18' E 140°35'1012.2
2016-Jul-19 14:27N 35°10' E 140°27'1111.7
2016-Jul-19 13:32N 35°03' E 140°17'1111.2
2016-Jul-19 12:33N 34°57' E 140°05'18 8.1
2016-Jul-19 10:18N 35°00' E 139°44'810.0
2016-Jul-19 09:33N 35°08' E 139°45'1010.2
2016-Jul-19 08:33N 35°18' E 139°44'9 8.8
2016-Jul-19 07:33N 35°26' E 139°41'3 1.1
2016-Jul-19 04:31N 35°23' E 139°40'0 0.0
2016-Jul-19 03:31N 35°23' E 139°40'0 0.0
2016-Jul-19 02:31N 35°23' E 139°40'0 0.0
2016-Jul-19 01:31N 35°23' E 139°40'0 0.0
2016-Jul-19 00:31N 35°23' E 139°40'0 0.0
2016-Jul-18 23:31N 35°23' E 139°40'0 0.0
2016-Jul-18 22:31N 35°23' E 139°40'0 0.0
2016-Jul-18 21:31N 35°23' E 139°40'0 0.0
2016-Jul-18 20:31N 35°23' E 139°40'0 0.0
2016-Jul-18 19:31N 35°23' E 139°40'0 0.0
2016-Jul-18 18:31N 35°23' E 139°40'0 0.0
2016-Jul-18 17:31N 35°23' E 139°40'0 0.1
2016-Jul-18 16:31N 35°23' E 139°40'0 0.0
2016-Jul-18 15:33N 35°23' E 139°40'8 8.3
2016-Jul-18 14:33N 35°16' E 139°46'1110.8
2016-Jul-18 13:34N 35°06' E 139°46'  
2016-Jul-16 07:33N 34°18' E 134°59'1010.1
2016-Jul-16 06:33N 34°27' E 135°05'17 8.7
2016-Jul-16 04:33N 34°41' E 135°17'4 4.5
2016-Jul-16 03:33N 34°37' E 135°14'1212.3
2016-Jul-16 02:33N 34°37' E 134°59'  
Track history (hours):
 
Tides and Currents Weather Stations Pressure Air Temp Water Temp Dewpoint Dewpoint Depression Visibility Wind Speed Wind Dir Waves Ship Positions

Otagawa

Last reported at 2016-Jul-25 19:18 UTC. Time now 2016-Jul-26 10:16 UTC.
Position N 35°01' E 139°29'.

Length 70 m; draft 3.7 m.

Type: Ship. MMSI: 431001328.

Date/timePositionNaut miles runAvg speedWind from/ knotsBaromVisibWave heightAir tempDewpointWater temp
2016-Jul-25 19:18N 35°01' E 139°29'1111.8
2016-Jul-25 18:21N 35°06' E 139°41'911.8
2016-Jul-25 17:33N 35°15' E 139°46'1110.5
2016-Jul-25 16:33N 35°24' E 139°41'1 1.3
2016-Jul-25 15:33N 35°23' E 139°40'0 0.3
2016-Jul-25 14:33N 35°23' E 139°40'0 0.2
2016-Jul-25 13:33N 35°23' E 139°40'0 0.0
2016-Jul-25 12:33N 35°23' E 139°40'0 0.0
2016-Jul-25 11:33N 35°23' E 139°40'0 0.0
2016-Jul-25 10:33N 35°23' E 139°40'0 0.0
2016-Jul-25 09:33N 35°23' E 139°40'0 0.0
2016-Jul-25 08:33N 35°23' E 139°40'0 0.4
2016-Jul-25 07:33N 35°23' E 139°41'3 2.8
2016-Jul-25 06:33N 35°26' E 139°41'0 0.0
2016-Jul-25 05:33N 35°26' E 139°41'6 6.4
2016-Jul-25 04:33N 35°20' E 139°43'10 9.5
2016-Jul-25 03:33N 35°11' E 139°46'1210.9
2016-Jul-25 02:27N 34°59' E 139°43'10 8.4
2016-Jul-25 01:17N 34°53' E 139°52'811.1
2016-Jul-25 00:33N 34°55' E 140°01'1211.6
2016-Jul-24 23:32N 35°02' E 140°13'1312.3
2016-Jul-24 22:30N 35°09' E 140°26'1111.9
2016-Jul-24 21:33N 35°19' E 140°34'1211.9
2016-Jul-24 20:33N 35°28' E 140°42'1612.4
2016-Jul-24 19:16N 35°41' E 140°54'70 1.8
2016-Jul-23 03:29N 35°02' E 139°43'1213.4
2016-Jul-23 02:33N 35°14' E 139°46'1211.8
2016-Jul-23 01:34N 35°25' E 139°44'1010.1
2016-Jul-23 00:34N 35°35' E 139°48'1 1.5
2016-Jul-22 23:34N 35°36' E 139°47'0 0.0
2016-Jul-22 22:34N 35°36' E 139°47'3 3.1
2016-Jul-22 21:33N 35°34' E 139°50'0 0.0
2016-Jul-22 20:33N 35°34' E 139°50'0 0.0
2016-Jul-22 19:15N 35°34' E 139°50'0 0.0
2016-Jul-22 18:33N 35°34' E 139°50'0 0.0
2016-Jul-22 17:33N 35°34' E 139°50'0 0.0
2016-Jul-22 16:09N 35°34' E 139°50'0 0.0
2016-Jul-22 15:21N 35°34' E 139°50'4 4.6
2016-Jul-22 14:33N 35°36' E 139°46'1 0.7
2016-Jul-22 13:33N 35°37' E 139°46'0 0.0
2016-Jul-22 12:33N 35°37' E 139°46'0 0.0
2016-Jul-22 11:33N 35°37' E 139°46'0 0.0
2016-Jul-22 10:33N 35°37' E 139°46'4 4.3
2016-Jul-22 09:33N 35°34' E 139°50'1 0.6
2016-Jul-22 08:31N 35°34' E 139°50'0 0.0
2016-Jul-22 07:31N 35°34' E 139°50'11 5.4
2016-Jul-22 05:33N 35°26' E 139°41'0 0.2
2016-Jul-22 04:33N 35°26' E 139°41'0 0.0
2016-Jul-22 03:33N 35°26' E 139°41'0 0.0
2016-Jul-22 02:33N 35°26' E 139°41'1 1.4
2016-Jul-22 01:33N 35°26' E 139°42'1010.2
2016-Jul-22 00:33N 35°16' E 139°46'10 9.6
2016-Jul-21 23:33N 35°06' E 139°46'1110.4
2016-Jul-21 22:27N 34°55' E 139°46'9 9.8
2016-Jul-21 21:33N 34°53' E 139°57'1110.9
2016-Jul-21 20:33N 34°59' E 140°08'1110.7
2016-Jul-21 19:33N 35°05' E 140°18'11 9.9
2016-Jul-21 18:29N 35°13' E 140°28'1010.2
2016-Jul-21 17:33N 35°20' E 140°35'1010.0
2016-Jul-21 16:33N 35°28' E 140°43'1010.0
2016-Jul-21 15:32N 35°36' E 140°50'22 0.5
2016-Jul-19 15:18N 35°18' E 140°35'1012.2
2016-Jul-19 14:27N 35°10' E 140°27'1111.7
2016-Jul-19 13:32N 35°03' E 140°17'1111.2
2016-Jul-19 12:33N 34°57' E 140°05'18 8.1
2016-Jul-19 10:18N 35°00' E 139°44'810.0
2016-Jul-19 09:33N 35°08' E 139°45'1010.2
2016-Jul-19 08:33N 35°18' E 139°44'9 8.8
2016-Jul-19 07:33N 35°26' E 139°41'3 1.1
2016-Jul-19 04:31N 35°23' E 139°40'0 0.0
2016-Jul-19 03:31N 35°23' E 139°40'0 0.0
2016-Jul-19 02:31N 35°23' E 139°40'0 0.0
2016-Jul-19 01:31N 35°23' E 139°40'0 0.0
2016-Jul-19 00:31N 35°23' E 139°40'0 0.0
2016-Jul-18 23:31N 35°23' E 139°40'0 0.0
2016-Jul-18 22:31N 35°23' E 139°40'0 0.0
2016-Jul-18 21:31N 35°23' E 139°40'0 0.0
2016-Jul-18 20:31N 35°23' E 139°40'0 0.0
2016-Jul-18 19:31N 35°23' E 139°40'0 0.0
2016-Jul-18 18:31N 35°23' E 139°40'0 0.0
2016-Jul-18 17:31N 35°23' E 139°40'0 0.1
2016-Jul-18 16:31N 35°23' E 139°40'0 0.0
2016-Jul-18 15:33N 35°23' E 139°40'8 8.3
2016-Jul-18 14:33N 35°16' E 139°46'1110.8
2016-Jul-18 13:34N 35°06' E 139°46'  
2016-Jul-16 07:33N 34°18' E 134°59'1010.1
2016-Jul-16 06:33N 34°27' E 135°05'17 8.7
2016-Jul-16 04:33N 34°41' E 135°17'4 4.5
2016-Jul-16 03:33N 34°37' E 135°14'1212.3
2016-Jul-16 02:33N 34°37' E 134°59'  

Dump ship's entire track history